createdAt,value
2019-05-30T00:00:39.904Z,61.13
2019-05-30T00:01:39.903Z,61.00
2019-05-30T00:02:39.880Z,60.31
2019-05-30T00:03:39.936Z,61.03
2019-05-30T00:04:39.860Z,60.72
2019-05-30T00:05:39.863Z,61.03
2019-05-30T00:06:39.866Z,60.93
2019-05-30T00:07:39.832Z,60.93
2019-05-30T00:08:39.811Z,61.26
2019-05-30T00:09:39.799Z,61.54
2019-05-30T00:10:39.787Z,61.77
2019-05-30T00:11:39.813Z,61.88
2019-05-30T00:12:39.775Z,61.88
2019-05-30T00:13:39.769Z,61.67
2019-05-30T00:14:39.742Z,62.08
2019-05-30T00:15:39.732Z,62.32
2019-05-30T00:16:39.751Z,63.00
2019-05-30T00:17:39.741Z,62.70
2019-05-30T00:18:39.721Z,62.70
2019-05-30T00:19:39.691Z,62.73
2019-05-30T00:20:39.691Z,63.03
2019-05-30T00:21:39.673Z,62.83
2019-05-30T00:22:39.709Z,62.42
2019-05-30T00:23:39.654Z,62.73
2019-05-30T00:24:39.639Z,62.73
2019-05-30T00:25:39.687Z,62.93
2019-05-30T00:26:39.610Z,63.95
2019-05-30T00:27:39.617Z,63.44
2019-05-30T00:28:39.609Z,63.54
2019-05-30T00:29:39.586Z,63.75
2019-05-30T00:30:39.576Z,64.18
2019-05-30T00:31:39.564Z,63.88
2019-05-30T00:32:39.643Z,63.88
2019-05-30T00:33:39.537Z,63.98
2019-05-30T00:34:39.520Z,64.18
2019-05-30T00:35:39.518Z,64.18
2019-05-30T00:36:39.511Z,63.88
2019-05-30T00:37:39.504Z,64.18
2019-05-30T00:38:39.479Z,64.70
2019-05-30T00:39:39.476Z,64.50
2019-05-30T00:40:39.455Z,64.60
2019-05-30T00:41:39.459Z,65.01
2019-05-30T00:42:39.460Z,65.01
2019-05-30T00:43:39.426Z,65.42
2019-05-30T00:44:39.417Z,65.11
2019-05-30T00:45:39.413Z,65.45
2019-05-30T00:46:39.416Z,65.45
2019-05-30T00:47:39.413Z,65.34
2019-05-30T00:48:39.368Z,65.55
2019-05-30T00:49:39.351Z,65.55
2019-05-30T00:50:39.342Z,65.75
2019-05-30T00:51:39.367Z,66.06
2019-05-30T00:52:39.352Z,65.55
2019-05-30T00:53:39.325Z,66.06
2019-05-30T00:54:39.299Z,65.99
2019-05-30T00:55:39.318Z,65.96
2019-05-30T00:56:39.280Z,66.37
2019-05-30T00:57:39.291Z,66.27
2019-05-30T00:58:39.262Z,66.16
2019-05-30T00:59:39.239Z,66.37
2019-05-30T01:00:43.815Z,66.78
2019-05-30T01:01:40.227Z,66.37
2019-05-30T01:02:39.241Z,66.78
2019-05-30T01:03:39.199Z,66.47
2019-05-30T01:04:39.193Z,66.67
2019-05-30T01:05:39.185Z,66.57
2019-05-30T01:06:39.165Z,66.47
2019-05-30T01:07:39.167Z,66.47
2019-05-30T01:08:39.147Z,66.60
2019-05-30T01:09:39.131Z,66.67
2019-05-30T01:10:39.125Z,66.60
2019-05-30T01:11:39.105Z,66.71
2019-05-30T01:12:39.114Z,66.57
2019-05-30T01:13:39.090Z,66.60
2019-05-30T01:14:39.089Z,66.91
2019-05-30T01:15:39.067Z,66.71
2019-05-30T01:16:41.852Z,66.40
2019-05-30T01:17:39.070Z,66.40
2019-05-30T01:18:39.035Z,66.50
2019-05-30T01:19:39.020Z,67.11
2019-05-30T01:20:39.009Z,67.76
2019-05-30T01:21:39.005Z,67.86
2019-05-30T01:22:39.025Z,67.56
2019-05-30T01:23:38.975Z,67.76
2019-05-30T01:24:38.964Z,68.17
2019-05-30T01:25:39.019Z,68.27
2019-05-30T01:26:38.946Z,67.79
2019-05-30T01:27:38.956Z,67.86
2019-05-30T01:28:38.919Z,68.51
2019-05-30T01:29:38.905Z,68.82
2019-05-30T01:30:38.897Z,68.82
2019-05-30T01:31:38.890Z,68.62
2019-05-30T01:32:38.905Z,68.62
2019-05-30T01:33:38.875Z,68.82
2019-05-30T01:34:38.851Z,69.33
2019-05-30T01:35:38.882Z,69.43
2019-05-30T01:36:38.828Z,69.02
2019-05-30T01:37:38.846Z,69.23
2019-05-30T01:38:38.811Z,69.13
2019-05-30T01:39:38.813Z,69.13
2019-05-30T01:40:38.785Z,69.06
2019-05-30T01:41:38.776Z,69.23
2019-05-30T01:42:38.783Z,69.23
2019-05-30T01:43:38.753Z,68.92
2019-05-30T01:44:38.745Z,69.13
2019-05-30T01:45:38.738Z,69.33
2019-05-30T01:46:38.714Z,69.13
2019-05-30T01:47:38.720Z,69.33
2019-05-30T01:48:38.697Z,69.47
2019-05-30T01:49:38.689Z,69.88
2019-05-30T01:50:38.722Z,68.96
2019-05-30T01:51:38.668Z,69.37
2019-05-30T01:52:38.668Z,70.18
2019-05-30T01:53:38.671Z,69.60
2019-05-30T01:54:38.637Z,70.29
2019-05-30T01:55:38.614Z,71.01
2019-05-30T01:56:38.622Z,69.60
2019-05-30T01:57:38.600Z,70.22
2019-05-30T01:58:38.600Z,70.63
2019-05-30T01:59:38.573Z,70.84
2019-05-30T02:00:38.562Z,71.14
2019-05-30T02:01:38.555Z,71.14
2019-05-30T02:02:38.545Z,71.04
2019-05-30T02:03:38.557Z,70.73
2019-05-30T02:04:38.520Z,70.73
2019-05-30T02:05:38.506Z,70.84
2019-05-30T02:06:38.497Z,70.94
2019-05-30T02:07:38.483Z,70.53
2019-05-30T02:08:38.498Z,71.35
2019-05-30T02:09:38.465Z,71.48
2019-05-30T02:10:38.458Z,71.28
2019-05-30T02:11:38.439Z,71.48
2019-05-30T02:12:38.431Z,71.69
2019-05-30T02:13:38.446Z,72.00
2019-05-30T02:14:38.410Z,72.20
2019-05-30T02:15:38.397Z,71.79
2019-05-30T02:16:38.386Z,72.20
2019-05-30T02:17:38.375Z,72.51
2019-05-30T02:18:38.383Z,72.20
2019-05-30T02:19:38.359Z,72.13
2019-05-30T02:20:38.381Z,72.03
2019-05-30T02:21:38.333Z,72.31
2019-05-30T02:22:38.321Z,72.41
2019-05-30T02:23:38.325Z,72.82
2019-05-30T02:24:38.295Z,72.72
2019-05-30T02:25:38.288Z,72.82
2019-05-30T02:26:38.274Z,72.51
2019-05-30T02:27:38.279Z,72.51
2019-05-30T02:28:38.315Z,72.92
2019-05-30T02:29:38.239Z,72.82
2019-05-30T02:30:38.232Z,72.85
2019-05-30T02:31:39.836Z,72.82
2019-05-30T02:32:38.215Z,73.02
2019-05-30T02:33:38.215Z,72.92
2019-05-30T02:34:38.189Z,72.61
2019-05-30T02:35:38.213Z,72.92
2019-05-30T02:36:38.173Z,72.61
2019-05-30T02:37:38.165Z,72.72
2019-05-30T02:38:38.155Z,72.72
2019-05-30T02:39:38.131Z,72.61
2019-05-30T02:40:38.135Z,72.82
2019-05-30T02:41:38.110Z,72.75
2019-05-30T02:42:38.105Z,72.72
2019-05-30T02:43:38.108Z,72.41
2019-05-30T02:44:38.073Z,72.20
2019-05-30T02:45:38.059Z,72.41
2019-05-30T02:46:38.064Z,72.65
2019-05-30T02:47:38.042Z,72.85
2019-05-30T02:48:57.399Z,72.82
2019-05-30T02:49:39.018Z,72.72
2019-05-30T02:50:38.106Z,73.02
2019-05-30T02:51:37.995Z,72.96
2019-05-30T02:52:37.982Z,72.85
2019-05-30T02:53:37.992Z,73.16
2019-05-30T02:54:37.979Z,73.16
2019-05-30T02:55:37.954Z,72.85
2019-05-30T02:56:37.944Z,72.85
2019-05-30T02:57:37.931Z,73.36
2019-05-30T02:58:37.947Z,72.85
2019-05-30T02:59:37.907Z,73.16
2019-05-30T03:00:37.902Z,73.27
2019-05-30T03:01:55.987Z,73.27
2019-05-30T03:02:38.874Z,73.36
2019-05-30T03:03:37.907Z,73.57
2019-05-30T03:04:37.860Z,73.47
2019-05-30T03:05:37.850Z,73.27
2019-05-30T03:06:37.830Z,73.27
2019-05-30T03:07:37.826Z,73.27
2019-05-30T03:08:37.829Z,73.57
2019-05-30T03:09:37.799Z,73.68
2019-05-30T03:10:37.784Z,73.27
2019-05-30T03:11:37.778Z,73.36
2019-05-30T03:12:37.774Z,73.27
2019-05-30T03:13:37.785Z,73.57
2019-05-30T03:14:37.745Z,73.36
2019-05-30T03:15:37.728Z,73.06
2019-05-30T03:16:37.727Z,73.36
2019-05-30T03:17:37.718Z,73.06
2019-05-30T03:18:37.728Z,72.85
2019-05-30T03:19:37.688Z,73.16
2019-05-30T03:20:37.682Z,73.06
2019-05-30T03:21:37.696Z,72.75
2019-05-30T03:22:37.656Z,73.06
2019-05-30T03:23:37.671Z,72.96
2019-05-30T03:24:37.641Z,72.85
2019-05-30T03:25:37.637Z,72.96
2019-05-30T03:26:37.615Z,73.06
2019-05-30T03:27:37.603Z,72.85
2019-05-30T03:28:37.606Z,72.92
2019-05-30T03:29:37.611Z,72.85
2019-05-30T03:30:37.566Z,73.16
2019-05-30T03:31:37.551Z,72.85
2019-05-30T03:33:42.156Z,73.06
2019-05-30T03:34:37.526Z,72.72
2019-05-30T03:35:42.786Z,72.51
2019-05-30T03:36:38.499Z,72.82
2019-05-30T03:37:37.484Z,72.72
2019-05-30T03:38:37.502Z,72.72
2019-05-30T03:39:37.466Z,72.72
2019-05-30T03:40:37.453Z,72.82
2019-05-30T03:41:37.447Z,72.41
2019-05-30T03:42:37.429Z,72.82
2019-05-30T03:43:37.444Z,72.72
2019-05-30T03:44:37.408Z,72.61
2019-05-30T03:45:37.446Z,72.41
2019-05-30T03:46:37.406Z,72.41
2019-05-30T03:47:37.375Z,72.51
2019-05-30T03:48:37.363Z,72.38
2019-05-30T03:49:37.378Z,72.72
2019-05-30T03:50:37.344Z,72.58
2019-05-30T03:51:37.336Z,72.58
2019-05-30T03:52:37.318Z,72.58
2019-05-30T03:53:37.399Z,71.76
2019-05-30T03:54:37.318Z,71.55
2019-05-30T03:55:37.292Z,70.56
2019-05-30T03:56:37.276Z,70.94
2019-05-30T03:57:37.264Z,71.04
2019-05-30T03:58:37.252Z,70.63
2019-05-30T03:59:37.259Z,71.04
2019-05-30T04:00:37.231Z,71.21
2019-05-30T04:01:37.216Z,70.80
2019-05-30T04:02:55.279Z,70.18
2019-05-30T04:03:38.192Z,69.88
2019-05-30T04:04:37.203Z,69.67
2019-05-30T04:05:37.186Z,69.26
2019-05-30T04:06:37.163Z,69.16
2019-05-30T04:07:37.148Z,69.26
2019-05-30T04:08:37.145Z,69.37
2019-05-30T04:09:37.220Z,69.02
2019-05-30T04:10:37.117Z,69.26
2019-05-30T04:11:37.119Z,69.13
2019-05-30T04:12:37.110Z,68.82
2019-05-30T04:13:37.083Z,69.23
2019-05-30T04:14:37.213Z,69.74
2019-05-30T04:15:37.063Z,69.02
2019-05-30T04:16:37.055Z,68.72
2019-05-30T04:17:37.159Z,68.79
2019-05-30T04:18:37.030Z,68.48
2019-05-30T04:19:37.030Z,68.72
2019-05-30T04:20:37.011Z,69.20
2019-05-30T04:21:36.998Z,68.72
2019-05-30T04:22:36.988Z,68.89
2019-05-30T04:23:36.986Z,68.68
2019-05-30T04:24:36.990Z,68.07
2019-05-30T04:25:36.960Z,68.59
2019-05-30T04:26:36.956Z,68.45
2019-05-30T04:27:36.928Z,67.97
2019-05-30T04:28:36.917Z,67.94
2019-05-30T04:29:36.929Z,67.94
2019-05-30T04:30:36.893Z,68.14
2019-05-30T04:31:36.889Z,67.73
2019-05-30T04:32:36.872Z,67.11
2019-05-30T04:33:36.867Z,67.63
2019-05-30T04:34:36.879Z,67.73
2019-05-30T04:35:36.855Z,67.32
2019-05-30T04:36:36.836Z,67.60
2019-05-30T04:37:36.819Z,67.40
2019-05-30T04:38:36.807Z,67.49
2019-05-30T04:39:36.815Z,66.37
2019-05-30T04:40:36.794Z,66.57
2019-05-30T04:41:36.773Z,66.47
2019-05-30T04:42:36.765Z,66.37
2019-05-30T04:43:36.755Z,66.47
2019-05-30T04:44:36.768Z,66.34
2019-05-30T04:45:36.727Z,66.75
2019-05-30T04:46:36.720Z,66.75
2019-05-30T04:47:36.703Z,66.54
2019-05-30T04:48:36.702Z,65.93
2019-05-30T04:49:36.792Z,66.13
2019-05-30T04:50:36.678Z,66.34
2019-05-30T04:51:36.669Z,66.34
2019-05-30T04:52:36.656Z,66.41
2019-05-30T04:53:36.641Z,65.90
2019-05-30T04:54:36.657Z,66.31
2019-05-30T04:55:36.657Z,65.69
2019-05-30T04:56:36.624Z,66.10
2019-05-30T04:57:36.598Z,65.87
2019-05-30T04:58:41.465Z,65.46
2019-05-30T04:59:37.594Z,64.84
2019-05-30T05:00:36.571Z,65.66
2019-05-30T05:01:36.547Z,65.05
2019-05-30T05:02:36.543Z,64.84
2019-05-30T05:03:45.735Z,64.03
2019-05-30T05:04:37.516Z,64.61
2019-05-30T05:05:36.539Z,64.61
2019-05-30T05:06:36.510Z,64.92
2019-05-30T05:07:36.480Z,65.12
2019-05-30T05:08:36.474Z,63.69
2019-05-30T05:09:36.473Z,62.84
2019-05-30T05:10:36.470Z,62.40
2019-05-30T05:11:36.448Z,61.35
2019-05-30T05:12:36.440Z,60.38
2019-05-30T05:13:36.417Z,57.87
2019-05-30T05:14:36.407Z,57.87
2019-05-30T05:15:36.414Z,57.14
2019-05-30T05:16:36.671Z,56.32
2019-05-30T05:17:36.372Z,56.52
2019-05-30T05:18:36.390Z,57.47
2019-05-30T05:19:36.355Z,57.87
2019-05-30T05:20:36.544Z,57.80
2019-05-30T05:21:36.331Z,58.92
2019-05-30T05:22:36.314Z,58.62
2019-05-30T05:23:36.304Z,59.16
2019-05-30T05:24:36.291Z,59.77
2019-05-30T05:25:36.306Z,59.77
2019-05-30T05:26:36.278Z,59.66
2019-05-30T05:27:36.270Z,60.07
2019-05-30T05:28:36.263Z,59.87
2019-05-30T05:29:36.240Z,59.46
2019-05-30T05:30:36.250Z,59.46
2019-05-30T05:31:36.235Z,60.00
2019-05-30T05:32:36.203Z,58.44
2019-05-30T05:33:36.219Z,59.36
2019-05-30T05:34:36.186Z,59.26
2019-05-30T05:35:36.170Z,59.36
2019-05-30T05:36:36.160Z,59.97
2019-05-30T05:37:36.145Z,59.56
2019-05-30T05:38:36.155Z,60.25
2019-05-30T05:39:36.127Z,59.43
2019-05-30T05:40:36.203Z,58.62
2019-05-30T05:41:36.108Z,59.23
2019-05-30T05:42:36.091Z,59.23
2019-05-30T05:43:36.098Z,59.23
2019-05-30T05:44:36.073Z,59.03
2019-05-30T05:45:36.057Z,58.51
2019-05-30T05:46:36.062Z,58.21
2019-05-30T05:47:36.034Z,57.80
2019-05-30T05:48:36.066Z,58.59
2019-05-30T05:49:36.015Z,58.28
2019-05-30T05:50:36.010Z,58.08
2019-05-30T05:51:36.009Z,58.08
2019-05-30T05:52:36.019Z,57.98
2019-05-30T05:53:35.973Z,58.18
2019-05-30T05:54:35.960Z,57.95
2019-05-30T05:55:35.951Z,58.36
2019-05-30T05:56:35.958Z,58.26
2019-05-30T05:57:35.990Z,57.54
2019-05-30T05:58:35.913Z,57.95
2019-05-30T05:59:35.905Z,57.14
2019-05-30T06:00:35.897Z,57.14
2019-05-30T06:01:35.895Z,57.24
2019-05-30T06:02:35.868Z,57.24
2019-05-30T06:03:35.858Z,57.21
2019-05-30T06:04:35.865Z,56.50
2019-05-30T06:05:35.838Z,56.40
2019-05-30T06:06:35.846Z,56.81
2019-05-30T06:07:35.823Z,56.77
2019-05-30T06:08:35.802Z,56.77
2019-05-30T06:09:35.807Z,57.08
2019-05-30T06:10:35.779Z,57.08
2019-05-30T06:11:35.782Z,57.08
2019-05-30T06:12:35.757Z,56.24
2019-05-30T06:13:35.900Z,56.57
2019-05-30T06:14:35.739Z,56.27
2019-05-30T06:15:35.738Z,57.49
2019-05-30T06:16:35.741Z,57.08
2019-05-30T06:17:35.705Z,56.14
2019-05-30T06:18:35.685Z,56.37
2019-05-30T06:19:45.981Z,56.07
2019-05-30T06:20:37.310Z,56.14
2019-05-30T06:21:35.681Z,57.06
2019-05-30T06:22:35.647Z,56.45
2019-05-30T06:23:35.633Z,56.12
2019-05-30T06:24:35.633Z,56.32
2019-05-30T06:25:35.609Z,56.32
2019-05-30T06:26:35.615Z,56.29
2019-05-30T06:27:35.591Z,55.99
2019-05-30T06:28:35.576Z,55.78
2019-05-30T06:29:35.567Z,55.48
2019-05-30T06:30:35.552Z,54.74
2019-05-30T06:31:35.562Z,53.34
2019-05-30T06:32:35.551Z,55.18
2019-05-30T06:33:35.552Z,54.66
2019-05-30T06:34:39.203Z,54.77
2019-05-30T06:35:35.499Z,54.87
2019-05-30T06:36:35.545Z,55.07
2019-05-30T06:37:35.503Z,54.77
2019-05-30T06:38:35.477Z,55.18
2019-05-30T06:39:35.466Z,55.68
2019-05-30T06:40:35.479Z,54.87
2019-05-30T06:41:35.454Z,54.74
2019-05-30T06:42:35.422Z,55.66
2019-05-30T06:43:35.412Z,55.66
2019-05-30T06:44:35.393Z,54.82
2019-05-30T06:45:35.384Z,55.02
2019-05-30T06:46:35.394Z,53.91
2019-05-30T06:47:35.379Z,53.80
2019-05-30T06:48:35.351Z,54.72
2019-05-30T06:49:35.373Z,53.70
2019-05-30T06:50:35.329Z,52.89
2019-05-30T06:51:35.339Z,53.58
2019-05-30T06:52:35.311Z,53.17
2019-05-30T06:53:35.300Z,53.27
2019-05-30T06:54:35.292Z,53.47
2019-05-30T06:55:35.280Z,53.78
2019-05-30T06:56:35.281Z,53.04
2019-05-30T06:57:35.253Z,53.45
2019-05-30T06:58:48.153Z,52.71
2019-05-30T06:59:36.246Z,52.41
2019-05-30T07:00:35.233Z,50.89
2019-05-30T07:01:35.231Z,52.00
2019-05-30T07:02:35.271Z,50.66
2019-05-30T07:03:35.295Z,49.75
2019-05-30T07:04:51.046Z,50.46
2019-05-30T07:05:36.800Z,49.24
2019-05-30T07:06:35.480Z,49.04
2019-05-30T07:07:35.327Z,49.87
2019-05-30T07:08:35.131Z,50.05
2019-05-30T07:09:35.126Z,49.95
2019-05-30T07:10:35.116Z,49.44
2019-05-30T07:11:35.121Z,49.65
2019-05-30T07:12:35.096Z,50.13
2019-05-30T07:13:35.073Z,49.11
2019-05-30T07:14:35.057Z,49.02
2019-05-30T07:15:35.055Z,49.02
2019-05-30T07:16:35.065Z,48.41
2019-05-30T07:17:35.035Z,48.69
2019-05-30T07:18:36.777Z,48.59
2019-05-30T07:19:37.711Z,48.59
2019-05-30T07:20:35.001Z,48.59
2019-05-30T07:21:35.017Z,48.97
2019-05-30T07:22:34.976Z,47.25
2019-05-30T07:23:38.832Z,46.72
2019-05-30T07:24:34.951Z,46.52
2019-05-30T07:25:34.940Z,47.03
2019-05-30T07:26:34.950Z,47.63
2019-05-30T07:27:34.923Z,46.22
2019-05-30T07:28:34.916Z,43.59
2019-05-30T07:29:34.926Z,44.70
2019-05-30T07:30:34.890Z,44.70
2019-05-30T07:31:34.909Z,43.99
2019-05-30T07:32:34.863Z,43.49
2019-05-30T07:33:34.855Z,44.20
2019-05-30T07:34:34.845Z,44.09
2019-05-30T07:35:34.839Z,44.60
2019-05-30T07:36:34.834Z,44.48
2019-05-30T07:37:34.807Z,44.17
2019-05-30T07:38:34.903Z,44.17
2019-05-30T07:39:37.278Z,43.37
2019-05-30T07:40:34.899Z,43.85
2019-05-30T07:41:34.840Z,43.95
2019-05-30T07:42:34.849Z,43.95
2019-05-30T07:43:35.258Z,44.46
2019-05-30T07:44:35.013Z,44.35
2019-05-30T07:45:35.180Z,42.13
2019-05-30T07:46:35.141Z,43.04
2019-05-30T07:47:34.718Z,43.37
2019-05-30T07:48:34.683Z,43.04
2019-05-30T07:49:34.707Z,44.66
2019-05-30T07:50:34.665Z,43.93
2019-05-30T07:51:34.796Z,43.83
2019-05-30T07:52:34.867Z,44.03
2019-05-30T07:53:35.025Z,42.01
2019-05-30T07:54:35.142Z,41.81
2019-05-30T07:55:35.188Z,41.91
2019-05-30T07:56:35.175Z,42.21
2019-05-30T07:57:34.606Z,42.01
2019-05-30T07:58:35.345Z,42.09
2019-05-30T07:59:34.805Z,42.19
2019-05-30T08:00:35.618Z,41.79
2019-05-30T08:01:34.712Z,42.18
2019-05-30T08:02:35.764Z,42.38
2019-05-30T08:03:34.788Z,41.87
2019-05-30T08:04:35.649Z,41.47
2019-05-30T08:05:34.801Z,41.56
2019-05-30T08:06:34.478Z,41.56
2019-05-30T08:07:35.062Z,40.66
2019-05-30T08:08:34.469Z,41.27
2019-05-30T08:09:35.031Z,41.67
2019-05-30T08:10:34.439Z,41.47
2019-05-30T08:11:35.077Z,41.27
2019-05-30T08:12:34.434Z,41.16
2019-05-30T08:13:35.251Z,41.65
2019-05-30T08:14:35.309Z,41.25
2019-05-30T08:15:37.041Z,41.25
2019-05-30T08:16:35.540Z,41.45
2019-05-30T08:17:35.648Z,40.72
2019-05-30T08:18:34.352Z,40.52
2019-05-30T08:19:34.456Z,39.61
2019-05-30T08:20:34.334Z,40.52
2019-05-30T08:21:34.317Z,39.92
2019-05-30T08:22:34.351Z,41.02
2019-05-30T08:23:34.342Z,40.82
2019-05-30T08:24:34.544Z,40.60
2019-05-30T08:25:34.326Z,40.50
2019-05-30T08:26:34.371Z,40.20
2019-05-30T08:27:34.360Z,39.59
2019-05-30T08:28:34.371Z,40.40
2019-05-30T08:29:34.425Z,41.71
2019-05-30T08:30:34.561Z,40.38
2019-05-30T08:31:34.610Z,40.38
2019-05-30T08:32:34.535Z,38.48
2019-05-30T08:33:35.492Z,39.70
2019-05-30T08:34:34.634Z,39.79
2019-05-30T08:35:46.903Z,40.28
2019-05-30T08:36:35.153Z,39.88
2019-05-30T08:37:35.147Z,40.18
2019-05-30T08:38:35.307Z,38.85
2019-05-30T08:39:35.163Z,38.75
2019-05-30T08:40:35.275Z,38.85
2019-05-30T08:41:35.218Z,39.48
2019-05-30T08:42:35.335Z,40.38
2019-05-30T08:43:34.073Z,38.95
2019-05-30T08:44:34.064Z,38.05
2019-05-30T08:45:34.055Z,38.65
2019-05-30T08:46:34.046Z,38.95
2019-05-30T08:47:34.104Z,39.25
2019-05-30T08:48:34.585Z,38.95
2019-05-30T08:49:34.089Z,39.86
2019-05-30T08:50:34.215Z,39.94
2019-05-30T08:51:34.204Z,39.64
2019-05-30T08:52:34.434Z,38.65
2019-05-30T08:53:34.367Z,37.73
2019-05-30T08:54:34.351Z,39.34
2019-05-30T08:55:34.386Z,37.83
2019-05-30T08:56:34.512Z,39.23
2019-05-30T08:57:34.991Z,39.14
2019-05-30T08:58:34.572Z,38.03
2019-05-30T08:59:34.461Z,39.64
2019-05-30T09:00:33.886Z,39.14
2019-05-30T09:01:33.873Z,38.42
2019-05-30T09:02:33.885Z,38.21
2019-05-30T09:03:33.858Z,38.62
2019-05-30T09:04:33.839Z,38.21
2019-05-30T09:05:33.833Z,38.01
2019-05-30T09:06:33.818Z,38.29
2019-05-30T09:07:33.832Z,38.20
2019-05-30T09:08:33.803Z,37.89
2019-05-30T09:09:33.783Z,37.98
2019-05-30T09:10:33.770Z,37.19
2019-05-30T09:11:33.778Z,37.99
2019-05-30T09:12:33.787Z,37.79
2019-05-30T09:13:33.753Z,37.69
2019-05-30T09:14:33.730Z,37.59
2019-05-30T09:15:33.714Z,37.19
2019-05-30T09:16:33.706Z,37.39
2019-05-30T09:17:33.722Z,36.18
2019-05-30T09:18:33.694Z,37.19
2019-05-30T09:19:33.672Z,36.58
2019-05-30T09:20:33.661Z,36.60
2019-05-30T09:21:33.648Z,36.18
2019-05-30T09:22:33.655Z,36.79
2019-05-30T09:23:33.630Z,35.38
2019-05-30T09:24:33.639Z,35.98
2019-05-30T09:25:33.606Z,36.29
2019-05-30T09:26:33.590Z,36.89
2019-05-30T09:27:33.682Z,37.79
2019-05-30T09:28:33.581Z,38.58
2019-05-30T09:29:33.559Z,36.69
2019-05-30T09:30:33.563Z,36.87
2019-05-30T09:31:33.543Z,36.29
2019-05-30T09:32:33.550Z,36.87
2019-05-30T09:33:33.512Z,36.77
2019-05-30T09:34:33.514Z,36.57
2019-05-30T09:35:33.496Z,36.97
2019-05-30T09:36:33.496Z,36.67
2019-05-30T09:37:33.540Z,37.47
2019-05-30T09:38:33.464Z,37.08
2019-05-30T09:39:33.445Z,38.28
2019-05-30T09:40:33.445Z,37.37
2019-05-30T09:41:33.433Z,37.27
2019-05-30T09:42:33.449Z,37.96
2019-05-30T09:43:33.414Z,38.66
2019-05-30T09:44:33.394Z,37.46
2019-05-30T09:45:33.387Z,36.75
2019-05-30T09:46:33.370Z,36.85
2019-05-30T09:47:33.381Z,37.15
2019-05-30T09:48:33.352Z,35.93
2019-05-30T09:49:33.337Z,36.23
2019-05-30T09:50:33.324Z,36.82
2019-05-30T09:51:33.324Z,35.31
2019-05-30T09:52:33.326Z,35.83
2019-05-30T09:53:33.298Z,35.31
2019-05-30T09:54:33.310Z,34.02
2019-05-30T09:55:33.274Z,34.14
2019-05-30T09:56:33.270Z,35.25
2019-05-30T09:57:33.272Z,34.54
2019-05-30T09:58:33.238Z,34.74
2019-05-30T09:59:33.233Z,35.53
2019-05-30T10:00:33.223Z,35.83
2019-05-30T10:01:33.210Z,35.53
2019-05-30T10:02:33.213Z,35.23
2019-05-30T10:03:33.191Z,35.33
2019-05-30T10:04:33.177Z,35.53
2019-05-30T10:05:33.161Z,35.25
2019-05-30T10:06:33.156Z,35.75
2019-05-30T10:07:33.165Z,36.05
2019-05-30T10:08:33.136Z,36.63
2019-05-30T10:09:33.120Z,35.33
2019-05-30T10:10:33.109Z,36.23
2019-05-30T10:11:33.092Z,35.71
2019-05-30T10:12:33.095Z,36.61
2019-05-30T10:13:33.076Z,35.10
2019-05-30T10:14:33.063Z,34.86
2019-05-30T10:15:33.053Z,35.43
2019-05-30T10:16:33.041Z,35.19
2019-05-30T10:17:33.060Z,31.79
2019-05-30T10:18:33.032Z,32.56
2019-05-30T10:19:33.002Z,31.76
2019-05-30T10:20:32.996Z,32.25
2019-05-30T10:21:32.981Z,31.52
2019-05-30T10:22:32.976Z,30.61
2019-05-30T10:23:33.044Z,31.19
2019-05-30T10:24:32.951Z,29.00
2019-05-30T10:25:32.937Z,30.59
2019-05-30T10:26:32.936Z,28.90
2019-05-30T10:27:32.921Z,29.43
2019-05-30T10:28:32.941Z,28.83
2019-05-30T10:29:32.899Z,30.49
2019-05-30T10:30:32.895Z,29.07
2019-05-30T10:31:32.878Z,28.26
2019-05-30T10:32:33.389Z,29.24
2019-05-30T10:33:33.892Z,27.82
2019-05-30T10:34:33.393Z,28.23
2019-05-30T10:35:32.838Z,27.73
2019-05-30T10:36:43.849Z,28.05
2019-05-30T10:37:33.823Z,27.94
2019-05-30T10:38:32.830Z,27.34
2019-05-30T10:39:32.802Z,27.33
2019-05-30T10:40:32.795Z,27.10
2019-05-30T10:41:32.771Z,27.09
2019-05-30T10:42:32.768Z,26.08
2019-05-30T10:43:32.780Z,26.08
2019-05-30T10:44:32.764Z,25.97
2019-05-30T10:45:32.733Z,26.56
2019-05-30T10:46:32.729Z,26.39
2019-05-30T10:47:32.714Z,26.48
2019-05-30T10:48:32.740Z,26.26
2019-05-30T10:49:34.964Z,25.35
2019-05-30T10:50:32.690Z,24.54
2019-05-30T10:51:32.681Z,24.35
2019-05-30T10:52:32.669Z,25.74
2019-05-30T10:53:32.684Z,25.73
2019-05-30T10:54:32.652Z,25.34
2019-05-30T10:55:32.643Z,25.62
2019-05-30T10:56:32.628Z,24.95
2019-05-30T10:57:32.623Z,25.14
2019-05-30T10:58:32.634Z,24.95
2019-05-30T10:59:32.601Z,25.04
2019-05-30T11:00:32.599Z,26.01
2019-05-30T11:01:32.580Z,23.71
2019-05-30T11:02:32.571Z,23.69
2019-05-30T11:03:32.583Z,23.47
2019-05-30T11:04:32.555Z,22.78
2019-05-30T11:05:32.563Z,22.35
2019-05-30T11:06:34.565Z,20.78
2019-05-30T11:07:32.532Z,22.05
2019-05-30T11:08:32.538Z,22.84
2019-05-30T11:09:32.511Z,22.23
2019-05-30T11:10:32.506Z,20.62
2019-05-30T11:11:32.578Z,19.62
2019-05-30T11:12:32.504Z,18.60
2019-05-30T11:13:32.540Z,18.49
2019-05-30T11:14:32.466Z,19.16
2019-05-30T11:15:32.466Z,18.99
2019-05-30T11:16:32.463Z,19.29
2019-05-30T11:17:32.447Z,18.52
2019-05-30T11:18:32.445Z,19.94
2019-05-30T11:19:32.454Z,20.54
2019-05-30T11:20:32.417Z,21.55
2019-05-30T11:21:32.416Z,21.12
2019-05-30T11:22:32.451Z,20.04
2019-05-30T11:23:33.409Z,20.70
2019-05-30T11:24:35.341Z,19.23
2019-05-30T11:25:56.908Z,18.72
2019-05-30T11:26:33.376Z,18.80
2019-05-30T11:27:32.362Z,18.70
2019-05-30T11:28:32.424Z,18.39
2019-05-30T11:29:32.399Z,18.19
2019-05-30T11:30:32.363Z,18.77
2019-05-30T11:31:32.332Z,18.74
2019-05-30T11:32:32.332Z,17.06
2019-05-30T11:33:32.350Z,17.25
2019-05-30T11:34:32.352Z,16.28
2019-05-30T11:35:32.303Z,17.40
2019-05-30T11:36:32.307Z,19.49
2019-05-30T11:37:32.286Z,19.00
2019-05-30T11:38:32.280Z,19.04
2019-05-30T11:39:32.292Z,20.17
2019-05-30T11:40:32.273Z,20.45
2019-05-30T11:41:32.261Z,21.02
2019-05-30T11:42:32.247Z,20.59
2019-05-30T11:43:32.247Z,19.29
2019-05-30T11:44:32.253Z,18.48
2019-05-30T11:45:32.219Z,18.08
2019-05-30T11:46:32.227Z,17.99
2019-05-30T11:47:32.201Z,19.43
2019-05-30T11:48:32.184Z,20.84
2019-05-30T11:49:32.203Z,21.29
2019-05-30T11:50:32.180Z,23.88
2019-05-30T11:51:32.164Z,23.79
2019-05-30T11:52:32.157Z,24.08
2019-05-30T11:53:32.139Z,24.20
2019-05-30T11:54:32.153Z,24.04
2019-05-30T11:55:32.123Z,26.34
2019-05-30T11:56:32.108Z,24.97
2019-05-30T11:57:32.139Z,26.17
2019-05-30T11:58:32.095Z,25.81
2019-05-30T11:59:32.098Z,27.52
2019-05-30T12:00:32.109Z,28.34
2019-05-30T12:01:32.077Z,28.16
2019-05-30T12:02:32.054Z,28.27
2019-05-30T12:03:32.038Z,28.69
2019-05-30T12:04:32.183Z,28.28
2019-05-30T12:05:32.040Z,28.80
2019-05-30T12:06:32.007Z,30.49
2019-05-30T12:07:36.383Z,29.08
2019-05-30T12:08:32.983Z,29.08
2019-05-30T12:09:31.980Z,28.87
2019-05-30T12:10:31.987Z,27.78
2019-05-30T12:11:31.954Z,28.67
2019-05-30T12:12:31.939Z,28.38
2019-05-30T12:13:31.929Z,29.08
2019-05-30T12:14:31.926Z,29.28
2019-05-30T12:15:31.936Z,29.38
2019-05-30T12:16:32.053Z,30.29
2019-05-30T12:17:31.883Z,29.00
2019-05-30T12:18:31.875Z,29.50
2019-05-30T12:19:31.866Z,29.20
2019-05-30T12:20:31.879Z,29.10
2019-05-30T12:21:31.845Z,29.10
2019-05-30T12:22:31.836Z,29.10
2019-05-30T12:23:31.826Z,29.80
2019-05-30T12:24:31.810Z,28.69
2019-05-30T12:25:31.822Z,29.69
2019-05-30T12:26:33.998Z,28.90
2019-05-30T12:27:32.831Z,28.78
2019-05-30T12:28:31.776Z,30.10
2019-05-30T12:29:31.765Z,29.00
2019-05-30T12:30:31.767Z,28.78
2019-05-30T12:31:31.735Z,30.36
2019-05-30T12:32:31.723Z,28.77
2019-05-30T12:33:31.860Z,28.88
2019-05-30T12:34:31.702Z,28.88
2019-05-30T12:35:31.733Z,28.40
2019-05-30T12:36:31.681Z,29.39
2019-05-30T12:37:31.670Z,28.78
2019-05-30T12:38:31.657Z,28.99
2019-05-30T12:39:31.652Z,29.98
2019-05-30T12:40:31.657Z,28.57
2019-05-30T12:41:31.624Z,28.78
2019-05-30T12:42:31.612Z,28.86
2019-05-30T12:43:31.604Z,28.87
2019-05-30T12:44:31.593Z,28.47
2019-05-30T12:45:31.603Z,28.77
2019-05-30T12:46:31.591Z,29.07
2019-05-30T12:47:31.564Z,28.97
2019-05-30T12:48:31.561Z,29.75
2019-05-30T12:49:31.539Z,31.15
2019-05-30T12:50:31.544Z,28.67
2019-05-30T12:51:31.522Z,29.17
2019-05-30T12:52:31.509Z,29.27
2019-05-30T12:53:31.493Z,28.47